WMT7M LRTR-LHBP
Flight info
| Callsign | WMT7M |
|---|---|
| Flight time | N/A |
| Altitude | 26000 |
| Route | MOPUG DCT KEZAL |
| Aircraft | A320/M-SDE3FGHIRWY/LB1 |
Departure
| Time | 2026-04-20 18:12 |
|---|---|
| Airport | Timișoara Traian Vuia International Airport (LRTR) |
Arrival
| Time | N/A |
|---|---|
| Airport | Budapest Liszt Ferenc International Airport (LHBP) |
| Time | Latitude | Longitude | Altitude | Speed | Heading |
|---|---|---|---|---|---|
| 2026-04-20 18:04 | 45.81090 | 21.32341 | 357 ft | 0 kts | 56° |
| 2026-04-20 18:06 | 45.81091 | 21.32346 | 357 ft | 1 kts | 67° |
| 2026-04-20 18:06 | 45.81088 | 21.32366 | 356 ft | 3 kts | 109° |
| 2026-04-20 18:06 | 45.81079 | 21.32378 | 362 ft | 0 kts | 148° |
| 2026-04-20 18:06 | 45.81078 | 21.32384 | 362 ft | 1 kts | 110° |
| 2026-04-20 18:07 | 45.81079 | 21.32419 | 360 ft | 11 kts | 85° |
| 2026-04-20 18:07 | 45.81076 | 21.32563 | 354 ft | 17 kts | 105° |
| 2026-04-20 18:07 | 45.81007 | 21.32864 | 357 ft | 40 kts | 109° |
| 2026-04-20 18:07 | 45.80911 | 21.33245 | 356 ft | 41 kts | 110° |
| 2026-04-20 18:08 | 45.80884 | 21.33549 | 360 ft | 20 kts | 38° |
| 2026-04-20 18:08 | 45.80937 | 21.33555 | 356 ft | 0 kts | 14° |
| 2026-04-20 18:09 | 45.80939 | 21.33556 | 355 ft | 1 kts | 14° |
| 2026-04-20 18:09 | 45.80954 | 21.33562 | 353 ft | 4 kts | 17° |
| 2026-04-20 18:09 | 45.81004 | 21.33658 | 354 ft | 16 kts | 105° |
| 2026-04-20 18:09 | 45.80964 | 21.33810 | 360 ft | 17 kts | 115° |
| 2026-04-20 18:10 | 45.80911 | 21.34025 | 360 ft | 31 kts | 108° |
| 2026-04-20 18:10 | 45.80804 | 21.34475 | 358 ft | 55 kts | 109° |
| 2026-04-20 18:10 | 45.80677 | 21.34982 | 360 ft | 53 kts | 110° |
| 2026-04-20 18:10 | 45.80593 | 21.35316 | 363 ft | 28 kts | 110° |
| 2026-04-20 18:11 | 45.80561 | 21.35458 | 356 ft | 2 kts | 29° |
| 2026-04-20 18:11 | 45.80573 | 21.35413 | 360 ft | 24 kts | 285° |
| 2026-04-20 18:11 | 45.80704 | 21.34865 | 357 ft | 90 kts | 290° |
| 2026-04-20 18:11 | 45.80982 | 21.33777 | 358 ft | 140 kts | 290° |
| 2026-04-20 18:12 | 45.81360 | 21.32336 | 626 ft | 161 kts | 289° |
| 2026-04-20 18:12 | 45.81741 | 21.30813 | 1153 ft | 163 kts | 290° |
| 2026-04-20 18:12 | 45.82006 | 21.29801 | 1521 ft | 164 kts | 291° |
| 2026-04-20 18:12 | 45.82539 | 21.27898 | 2114 ft | 137 kts | 293° |
| 2026-04-20 18:13 | 45.82785 | 21.27086 | 2045 ft | 132 kts | 293° |
| 2026-04-20 18:13 | 45.83179 | 21.25853 | 1746 ft | 131 kts | 295° |
| 2026-04-20 18:13 | 45.83555 | 21.24754 | 1587 ft | 120 kts | 295° |
| 2026-04-20 18:13 | 45.83876 | 21.23581 | 1145 ft | 131 kts | 284° |
| 2026-04-20 18:14 | 45.84075 | 21.22260 | 1409 ft | 133 kts | 282° |
| 2026-04-20 18:14 | 45.84274 | 21.20985 | 2055 ft | 133 kts | 280° |
| 2026-04-20 18:14 | 45.84031 | 21.19779 | 2188 ft | 131 kts | 216° |
| 2026-04-20 18:14 | 45.83155 | 21.19716 | 1688 ft | 146 kts | 141° |
| 2026-04-20 18:15 | 45.82709 | 21.21193 | 1708 ft | 179 kts | 96° |
| 2026-04-20 18:15 | 45.82729 | 21.23099 | 1749 ft | 202 kts | 88° |
| 2026-04-20 18:15 | 45.82780 | 21.25234 | 1464 ft | 226 kts | 89° |
| 2026-04-20 18:15 | 45.82636 | 21.27526 | 1195 ft | 235 kts | 104° |
| 2026-04-20 18:16 | 45.82092 | 21.29581 | 675 ft | 200 kts | 113° |
| 2026-04-20 18:16 | 45.81624 | 21.31275 | 433 ft | 164 kts | 109° |
| 2026-04-20 18:16 | 45.81277 | 21.32667 | 363 ft | 132 kts | 108° |
| 2026-04-20 18:16 | 45.81039 | 21.33630 | 359 ft | 61 kts | 110° |
| 2026-04-20 18:17 | 45.80982 | 21.33827 | 361 ft | 1 kts | 112° |
| 2026-04-20 18:17 | 45.80976 | 21.33849 | 356 ft | 9 kts | 112° |
| 2026-04-20 18:17 | 45.80856 | 21.34256 | 351 ft | 78 kts | 112° |
| 2026-04-20 18:17 | 45.80678 | 21.34988 | 358 ft | 68 kts | 110° |
| 2026-04-20 18:18 | 45.80555 | 21.35475 | 353 ft | 40 kts | 110° |
| 2026-04-20 18:18 | 45.80463 | 21.35796 | 360 ft | 23 kts | 110° |
| 2026-04-20 18:18 | 45.80483 | 21.35859 | 351 ft | 5 kts | 2° |
| 2026-04-20 18:18 | 45.80496 | 21.35838 | 361 ft | 0 kts | 294° |